Time;durP1;ratioP1;P1;durP2;ratioP2;P2;SDS_P1;SDS_P2;PMS_P1;PMS_P2;Temp;Humidity;BMP_temperature;BMP_pressure;BME280_temperature;BME280_humidity;BME280_pressure;Samples;Min_cycle;Max_cycle;Signal;HPM_P1;HPM_P2
2022/02/09 00:02:00;;;;;;;8.35;3.02;;;7.60;99.90;;;;;;1777362;79;21476;-73
2022/02/09 00:07:03;;;;;;;6.13;3.67;;;7.80;99.90;;;;;;1779973;80;21548;-73
2022/02/09 00:09:15;;;;;;;8.58;3.90;;;7.80;99.90;;;;;;1785756;80;21220;-74
2022/02/09 00:11:50;;;;;;;12.28;3.92;;;7.70;99.90;;;;;;1785364;80;21048;-74
2022/02/09 00:14:25;;;;;;;9.33;3.40;;;7.80;99.90;;;;;;1779465;79;21150;-73
2022/02/09 00:19:40;;;;;;;15.43;3.33;;;7.70;99.90;;;;;;1782519;80;21095;-74
2022/02/09 00:33:25;;;;;;;9.58;3.10;;;7.60;99.90;;;;;;1783871;79;21076;-73
2022/02/09 00:35:55;;;;;;;7.55;3.08;;;7.70;99.90;;;;;;1775682;80;21087;-75
2022/02/09 00:38:39;;;;;;;11.90;3.02;;;7.80;99.90;;;;;;1784246;79;21051;-73
2022/02/09 00:41:14;;;;;;;3.90;2.58;;;7.80;99.90;;;;;;1783691;79;21601;-75
2022/02/09 00:43:56;;;;;;;9.38;2.47;;;7.80;99.90;;;;;;1778054;80;21174;-74
2022/02/09 01:02:49;;;;;;;5.42;2.50;;;7.70;99.90;;;;;;1777741;80;21173;-74
2022/02/09 01:37:54;;;;;;;6.00;2.80;;;7.40;99.90;;;;;;1788818;80;21191;-75
2022/02/09 01:57:18;;;;;;;9.40;3.17;;;7.30;99.90;;;;;;1776713;80;21566;-74
2022/02/09 01:59:47;;;;;;;7.17;3.25;;;7.30;99.90;;;;;;1778365;80;21074;-73
2022/02/09 02:02:15;;;;;;;8.55;3.27;;;7.30;99.90;;;;;;1787524;79;21051;-73
2022/02/09 02:04:47;;;;;;;10.50;3.35;;;7.30;99.90;;;;;;1747812;80;21145;-72
2022/02/09 02:07:29;;;;;;;7.60;3.35;;;7.30;99.90;;;;;;1779687;80;21310;-74
2022/02/09 02:09:44;;;;;;;11.73;3.22;;;7.30;99.90;;;;;;1780595;80;21485;-74
2022/02/09 02:12:16;;;;;;;11.25;3.20;;;7.30;99.90;;;;;;1773957;80;21079;-74
2022/02/09 02:14:45;;;;;;;13.08;3.30;;;7.30;99.90;;;;;;1777856;80;21064;-74
2022/02/09 02:19:41;;;;;;;8.13;3.52;;;7.30;99.90;;;;;;1782934;80;21166;-75
2022/02/09 02:28:07;;;;;;;9.80;3.60;;;7.30;99.90;;;;;;1780816;80;21213;-74
2022/02/09 02:58:04;;;;;;;9.95;2.80;;;7.20;99.90;;;;;;1779737;79;21151;-74
2022/02/09 02:59:39;;;;;;;11.73;3.27;;;7.20;99.90;;;;;;1787670;80;21495;-74
2022/02/09 03:10:49;;;;;;;7.00;3.30;;;7.10;99.90;;;;;;1780637;80;21094;-73
2022/02/09 03:13:09;;;;;;;4.55;2.70;;;7.10;99.90;;;;;;1780228;79;21327;-73
2022/02/09 03:15:42;;;;;;;6.60;3.00;;;7.20;99.90;;;;;;1775029;80;22554;-73
2022/02/09 03:18:38;;;;;;;8.15;3.08;;;7.20;99.90;;;;;;1777983;80;21103;-74
2022/02/09 03:21:01;;;;;;;6.97;2.83;;;7.20;99.90;;;;;;1774251;80;21404;-74
2022/02/09 03:50:45;;;;;;;13.58;4.17;;;7.00;99.90;;;;;;1789715;79;21079;-75
2022/02/09 03:53:14;;;;;;;8.20;3.37;;;7.00;99.90;;;;;;1777463;80;21095;-75
2022/02/09 03:58:07;;;;;;;6.20;3.25;;;7.00;99.90;;;;;;1778666;80;21517;-74
2022/02/09 04:00:38;;;;;;;13.18;3.70;;;6.90;99.90;;;;;;1780073;80;21222;-75
2022/02/09 04:03:05;;;;;;;5.12;3.22;;;7.00;99.90;;;;;;1777403;80;21077;-75
2022/02/09 04:05:32;;;;;;;7.03;3.95;;;7.00;99.90;;;;;;1786227;79;21475;-75
2022/02/09 04:08:01;;;;;;;9.30;3.10;;;7.00;99.90;;;;;;1781757;79;21079;-75
2022/02/09 04:10:36;;;;;;;14.87;4.10;;;7.00;99.90;;;;;;1776224;80;21475;-75
2022/02/09 04:15:48;;;;;;;7.15;3.37;;;6.90;99.90;;;;;;1788229;79;21212;-74
2022/02/09 04:18:12;;;;;;;11.57;3.55;;;7.00;99.90;;;;;;1784145;79;21251;-74
2022/02/09 04:39:24;;;;;;;7.83;3.08;;;7.00;99.90;;;;;;1863483;76;21214;-74
2022/02/09 04:49:43;;;;;;;8.00;3.00;;;7.00;99.90;;;;;;1864616;76;21127;-73
2022/02/09 04:52:22;;;;;;;7.53;3.15;;;6.90;99.90;;;;;;1864570;76;21185;-74
2022/02/09 04:57:27;;;;;;;7.22;2.45;;;7.00;99.90;;;;;;1864120;76;21092;-74
2022/02/09 04:59:54;;;;;;;4.90;3.00;;;6.90;99.90;;;;;;1853796;76;21085;-73
2022/02/09 05:17:56;;;;;;;12.65;4.53;;;6.80;99.90;;;;;;1864881;76;21085;-74
2022/02/09 05:19:26;;;;;;;11.38;3.92;;;6.80;99.90;;;;;;1821330;78;21233;-74
2022/02/09 05:21:51;;;;;;;6.00;3.20;;;6.80;99.90;;;;;;1822507;77;21252;-74
2022/02/09 05:28:56;;;;;;;10.70;3.83;;;6.80;99.90;;;;;;1776157;78;21510;-73
2022/02/09 05:31:24;;;;;;;7.00;3.92;;;6.80;99.90;;;;;;1812633;78;21242;-73
2022/02/09 05:33:52;;;;;;;13.00;4.53;;;6.80;99.90;;;;;;1814046;78;21564;-73
2022/02/09 05:36:19;;;;;;;11.10;4.60;;;6.80;99.90;;;;;;1810210;78;21106;-73
2022/02/09 05:38:47;;;;;;;11.88;4.15;;;6.80;99.90;;;;;;1805355;79;21172;-73
2022/02/09 05:41:14;;;;;;;8.53;4.17;;;7.00;99.90;;;;;;1820688;78;21085;-74
2022/02/09 05:43:41;;;;;;;7.62;4.10;;;7.00;99.90;;;;;;1814280;78;21094;-73
2022/02/09 05:51:48;;;;;;;8.15;3.47;;;6.90;99.90;;;;;;1811709;78;21110;-74
2022/02/09 05:56:46;;;;;;;8.38;3.70;;;7.00;99.90;;;;;;1808447;79;21096;-74
2022/02/09 05:59:28;;;;;;;8.40;3.37;;;7.00;99.90;;;;;;1792874;79;21084;-74
2022/02/09 06:01:46;;;;;;;6.62;2.95;;;7.00;99.90;;;;;;1789660;80;21087;-73
2022/02/09 06:04:13;;;;;;;8.25;3.40;;;7.00;99.90;;;;;;1793554;80;21448;-73
2022/02/09 06:06:40;;;;;;;7.12;3.52;;;6.90;99.90;;;;;;1793853;79;21172;-73
2022/02/09 06:09:08;;;;;;;7.62;3.17;;;6.80;99.90;;;;;;1788182;79;21162;-74
2022/02/09 06:12:02;;;;;;;5.92;2.83;;;6.80;99.90;;;;;;1792933;79;21383;-75
2022/02/09 06:14:34;;;;;;;8.03;3.30;;;6.80;99.90;;;;;;1794367;79;21084;-75
2022/02/09 06:22:05;;;;;;;14.50;3.80;;;6.80;99.90;;;;;;1756711;80;21126;-76
2022/02/09 06:24:33;;;;;;;9.23;3.62;;;6.80;99.90;;;;;;1813960;79;21222;-74
2022/02/09 06:27:00;;;;;;;7.87;3.17;;;6.80;99.90;;;;;;1815973;77;21046;-74
2022/02/09 06:29:27;;;;;;;5.45;2.95;;;6.90;99.90;;;;;;1813977;79;21078;-75
2022/02/09 06:31:54;;;;;;;4.37;2.92;;;6.80;99.90;;;;;;1813811;79;21039;-75
2022/02/09 06:34:22;;;;;;;6.95;3.10;;;6.70;99.90;;;;;;1813974;79;21447;-75
2022/02/09 06:36:57;;;;;;;7.55;3.55;;;6.80;99.90;;;;;;1814060;79;21503;-75
2022/02/09 06:39:20;;;;;;;8.43;3.15;;;6.70;99.90;;;;;;1815399;77;21082;-74
2022/02/09 06:41:47;;;;;;;7.53;3.20;;;6.80;99.90;;;;;;1813923;79;21094;-73
2022/02/09 06:44:15;;;;;;;8.35;3.80;;;6.80;99.90;;;;;;1821675;78;21094;-75
2022/02/09 06:46:42;;;;;;;9.58;4.10;;;6.70;99.90;;;;;;1822755;79;21486;-75
2022/02/09 06:49:09;;;;;;;8.80;3.62;;;6.70;99.90;;;;;;1822849;79;21140;-72
2022/02/09 06:51:39;;;;;;;7.03;3.10;;;6.70;99.90;;;;;;1822654;79;21184;-72
2022/02/09 06:54:15;;;;;;;12.40;3.58;;;6.70;99.90;;;;;;1822766;79;21115;-72
2022/02/09 06:57:02;;;;;;;7.47;3.42;;;6.70;99.90;;;;;;1823429;77;21085;-74
2022/02/09 06:59:20;;;;;;;9.35;3.95;;;6.70;99.90;;;;;;1826180;77;21244;-73
2022/02/09 07:01:42;;;;;;;8.60;3.50;;;6.60;99.90;;;;;;1823885;77;21463;-73
2022/02/09 07:04:10;;;;;;;9.03;3.98;;;6.60;99.90;;;;;;1822714;79;21116;-73
2022/02/09 07:06:37;;;;;;;5.65;3.87;;;6.60;99.90;;;;;;1822684;79;21128;-73
2022/02/09 07:09:05;;;;;;;7.20;3.85;;;6.60;99.90;;;;;;1822745;79;21101;-73
2022/02/09 07:11:33;;;;;;;16.30;4.33;;;6.50;99.90;;;;;;1822843;79;21133;-73
2022/02/09 07:14:00;;;;;;;7.67;3.92;;;6.50;99.90;;;;;;1822802;79;21132;-75
2022/02/09 07:16:29;;;;;;;10.38;4.20;;;6.40;99.90;;;;;;1822672;79;21572;-75
2022/02/09 07:18:56;;;;;;;10.00;3.55;;;6.40;99.90;;;;;;1822879;78;21094;-74
2022/02/09 07:21:28;;;;;;;13.38;4.70;;;6.30;99.90;;;;;;1823503;78;21168;-74
2022/02/09 07:23:56;;;;;;;6.97;3.33;;;6.20;99.90;;;;;;1823390;77;21144;-75
2022/02/09 07:29:08;;;;;;;6.12;3.75;;;6.20;99.90;;;;;;1822941;79;21193;-74
2022/02/09 07:31:35;;;;;;;13.65;3.92;;;6.10;99.90;;;;;;1822626;79;21167;-74
2022/02/09 07:34:02;;;;;;;9.25;3.15;;;6.10;99.90;;;;;;1822786;79;21124;-75
2022/02/09 07:36:35;;;;;;;10.88;3.37;;;6.00;99.90;;;;;;1822785;79;21069;-74
2022/02/09 07:38:59;;;;;;;8.53;3.62;;;5.90;99.90;;;;;;1810171;78;21216;-76
2022/02/09 07:41:26;;;;;;;10.20;4.03;;;5.90;99.90;;;;;;1814092;79;21141;-75
2022/02/09 07:46:39;;;;;;;13.05;3.65;;;5.90;99.90;;;;;;1814124;77;21094;-72
2022/02/09 07:49:07;;;;;;;9.88;3.60;;;5.90;99.90;;;;;;1816173;77;21145;-75
2022/02/09 07:51:40;;;;;;;13.55;3.58;;;5.90;99.90;;;;;;1814513;77;21086;-72
2022/02/09 07:54:06;;;;;;;10.23;3.58;;;6.00;99.90;;;;;;1813998;79;21470;-73
2022/02/09 07:56:41;;;;;;;4.75;3.40;;;6.00;99.90;;;;;;1814249;79;21099;-73
2022/02/09 07:59:10;;;;;;;9.60;3.77;;;6.10;99.90;;;;;;1814403;79;21188;-71
2022/02/09 08:01:38;;;;;;;8.33;3.57;;;6.10;99.90;;;;;;1814568;79;21062;-73
2022/02/09 08:04:05;;;;;;;5.70;2.62;;;6.10;99.90;;;;;;1814312;79;22224;-72
2022/02/09 08:06:33;;;;;;;8.38;3.20;;;6.00;99.90;;;;;;1820760;79;21112;-72
2022/02/09 08:09:06;;;;;;;8.95;2.65;;;6.10;99.90;;;;;;1823323;78;21065;-72
2022/02/09 08:11:53;;;;;;;6.72;3.15;;;6.00;99.90;;;;;;1823945;77;21093;-73
2022/02/09 08:28:21;;;;;;;11.38;4.00;;;6.30;99.90;;;;;;1822929;79;21091;-72
2022/02/09 08:33:08;;;;;;;8.75;3.60;;;6.40;99.90;;;;;;1824941;78;21086;-72
2022/02/09 08:35:36;;;;;;;8.55;3.87;;;6.30;99.90;;;;;;1822895;77;21066;-72
2022/02/09 08:38:04;;;;;;;20.20;4.58;;;6.60;99.90;;;;;;1822917;79;21576;-71
2022/02/09 08:40:31;;;;;;;8.95;4.20;;;6.50;99.90;;;;;;1822815;78;21057;-73
2022/02/09 08:42:59;;;;;;;10.10;4.12;;;6.50;99.90;;;;;;1822793;79;21098;-71
2022/02/09 08:45:26;;;;;;;6.75;3.60;;;6.60;99.90;;;;;;1822901;79;21156;-71
2022/02/09 08:47:54;;;;;;;9.88;3.70;;;6.70;99.90;;;;;;1822777;79;21109;-71
2022/02/09 08:50:21;;;;;;;10.80;3.87;;;6.70;99.90;;;;;;1823010;79;21132;-72
2022/02/09 08:52:49;;;;;;;19.90;4.30;;;6.80;99.90;;;;;;1822793;79;21215;-74
2022/02/09 08:55:16;;;;;;;8.25;4.00;;;6.90;99.90;;;;;;1815731;79;21157;-73
2022/02/09 08:57:43;;;;;;;7.15;3.90;;;7.00;99.90;;;;;;1822916;79;21124;-74
2022/02/09 09:00:22;;;;;;;18.40;4.12;;;7.10;99.90;;;;;;1823017;79;21066;-73
2022/02/09 09:02:47;;;;;;;6.70;3.40;;;7.40;99.90;;;;;;1824298;77;21113;-72
2022/02/09 09:05:23;;;;;;;8.00;3.40;;;7.70;99.90;;;;;;1823753;77;21070;-72
2022/02/09 09:07:49;;;;;;;7.37;3.50;;;7.70;99.90;;;;;;1824499;77;21186;-72
2022/02/09 09:10:39;;;;;;;8.10;3.20;;;8.00;99.90;;;;;;1823578;77;21167;-73
2022/02/09 09:16:24;;;;;;;12.93;3.22;;;8.10;99.90;;;;;;1827573;77;21168;-71
2022/02/09 09:18:47;;;;;;;7.87;3.33;;;8.30;99.90;;;;;;1826858;77;21079;-71
2022/02/09 09:31:21;;;;;;;8.78;2.83;;;8.90;99.90;;;;;;1842094;77;21106;-72
2022/02/09 09:58:02;;;;;;;7.83;3.10;;;9.90;99.90;;;;;;1824762;79;21113;-72
2022/02/09 09:59:01;;;;;;;13.08;3.17;;;10.70;99.90;;;;;;1822907;79;21106;-73
2022/02/09 10:04:17;;;;;;;6.97;3.20;;;11.10;99.90;;;;;;1838079;78;21135;-72
2022/02/09 10:32:54;;;;;;;5.08;3.22;;;12.80;99.90;;;;;;1822673;79;21114;-71
2022/02/09 10:34:39;;;;;;;12.70;2.80;;;13.00;99.90;;;;;;1832395;77;21217;-70
2022/02/09 10:37:07;;;;;;;6.55;2.90;;;13.10;99.90;;;;;;1822707;78;21589;-71
2022/02/09 10:39:59;;;;;;;6.35;2.72;;;12.50;99.90;;;;;;1822760;79;21117;-71
2022/02/09 10:42:32;;;;;;;8.40;2.70;;;12.00;99.90;;;;;;1824646;77;21476;-71
2022/02/09 10:45:03;;;;;;;6.40;2.92;;;12.00;99.90;;;;;;1824439;77;21524;-71
2022/02/09 10:47:34;;;;;;;12.37;3.90;;;12.20;99.90;;;;;;1824908;77;21462;-72
2022/02/09 10:50:31;;;;;;;4.90;2.92;;;12.40;99.90;;;;;;1822829;77;21059;-72
2022/02/09 10:52:59;;;;;;;11.80;3.17;;;13.10;99.90;;;;;;1821990;78;21527;-72
2022/02/09 10:55:35;;;;;;;7.60;2.75;;;13.50;99.90;;;;;;1822928;79;21151;-72
2022/02/09 10:58:08;;;;;;;8.05;2.80;;;13.40;99.90;;;;;;1822803;79;21127;-72
2022/02/09 11:00:36;;;;;;;8.45;2.52;;;13.80;99.90;;;;;;1813095;78;21066;-72
2022/02/09 11:03:03;;;;;;;6.60;2.77;;;14.50;99.90;;;;;;1822628;79;21063;-72
2022/02/09 11:08:52;;;;;;;5.97;3.12;;;14.00;99.90;;;;;;1822789;79;21124;-74
2022/02/09 11:11:20;;;;;;;4.62;2.62;;;14.40;99.90;;;;;;1823447;79;21061;-72
2022/02/09 11:13:47;;;;;;;9.25;3.15;;;14.30;99.90;;;;;;1823044;79;21038;-72
2022/02/09 11:16:16;;;;;;;5.15;2.65;;;14.30;99.90;;;;;;1822737;79;21101;-72
2022/02/09 11:18:47;;;;;;;6.00;2.33;;;14.20;99.90;;;;;;1822776;77;21087;-72
2022/02/09 11:21:15;;;;;;;5.67;2.70;;;14.80;99.90;;;;;;1822814;78;21054;-72
2022/02/09 11:24:07;;;;;;;5.70;2.27;;;14.80;99.90;;;;;;1822837;78;21058;-72
2022/02/09 11:26:48;;;;;;;2.95;1.50;;;15.20;99.90;;;;;;1824510;77;21156;-72
2022/02/09 11:40:41;;;;;;;5.75;1.85;;;14.50;99.90;;;;;;1822836;78;21446;-73
2022/02/09 11:51:37;;;;;;;5.78;1.85;;;15.30;99.90;;;;;;1823027;77;21059;-72
2022/02/09 12:11:27;;;;;;;2.15;1.30;;;16.50;99.90;;;;;;1822868;79;21172;-77
2022/02/09 12:16:44;;;;;;;7.37;1.75;;;15.50;99.90;;;;;;1823162;77;21180;-74
2022/02/09 12:19:06;;;;;;;4.08;1.62;;;15.60;99.90;;;;;;1825004;77;21455;-72
2022/02/09 12:21:56;;;;;;;5.72;1.70;;;16.40;99.90;;;;;;1823222;77;21081;-71
2022/02/09 12:24:25;;;;;;;5.05;1.37;;;17.10;99.90;;;;;;1823363;77;21085;-77
2022/02/09 12:26:59;;;;;;;4.90;1.80;;;17.80;99.90;;;;;;1823060;79;21119;-73
2022/02/09 12:29:37;;;;;;;7.80;1.55;;;18.20;99.90;;;;;;1822882;78;21090;-74
2022/02/09 12:32:19;;;;;;;3.12;1.35;;;18.10;99.90;;;;;;1822976;79;21109;-73
2022/02/09 12:35:06;;;;;;;4.22;1.17;;;17.70;99.90;;;;;;1822845;78;21066;-73
2022/02/09 12:37:39;;;;;;;5.95;1.57;;;17.20;99.90;;;;;;1822863;78;21254;-70
2022/02/09 12:40:18;;;;;;;2.77;1.15;;;16.90;99.90;;;;;;1820859;79;21054;-71
2022/02/09 12:42:48;;;;;;;3.62;1.52;;;16.60;99.90;;;;;;1824241;78;21482;-71
2022/02/09 12:45:20;;;;;;;8.15;1.60;;;16.70;99.90;;;;;;1829609;78;21139;-71
2022/02/09 12:47:50;;;;;;;3.47;1.40;;;16.30;99.90;;;;;;1822851;79;21123;-71
2022/02/09 12:50:26;;;;;;;1.80;1.10;;;16.80;99.90;;;;;;1822932;79;21066;-71
2022/02/09 12:52:54;;;;;;;3.58;1.30;;;17.10;99.90;;;;;;1822771;79;21494;-70
2022/02/09 12:55:27;;;;;;;2.65;1.70;;;17.90;99.90;;;;;;1822934;78;21071;-73
2022/02/09 12:58:01;;;;;;;5.20;1.35;;;18.70;99.90;;;;;;1822095;79;21117;-72
2022/02/09 13:00:43;;;;;;;2.50;1.45;;;18.60;99.90;;;;;;1823073;76;21136;-73
2022/02/09 13:03:14;;;;;;;3.55;1.27;;;18.60;99.90;;;;;;1823301;78;21448;-72
2022/02/09 13:05:45;;;;;;;3.92;1.45;;;18.70;99.90;;;;;;1817809;79;21458;-74
2022/02/09 13:08:14;;;;;;;6.45;1.50;;;19.40;99.90;;;;;;1822932;79;21152;-73
2022/02/09 13:10:42;;;;;;;3.20;1.10;;;18.60;99.90;;;;;;1800269;79;21156;-73
2022/02/09 13:13:21;;;;;;;2.12;1.05;;;18.20;99.90;;;;;;1831274;78;21452;-75
2022/02/09 13:16:07;;;;;;;3.67;1.30;;;18.60;99.90;;;;;;1801544;79;21587;-76
2022/02/09 13:19:01;;;;;;;3.35;1.60;;;18.90;99.90;;;;;;1826293;77;21067;-74
2022/02/09 13:22:27;;;;;;;1.52;1.17;;;18.80;99.90;;;;;;1825225;77;21160;-75
2022/02/09 13:53:03;;;;;;;1.90;0.90;;;18.60;99.90;;;;;;1823083;79;21547;-73
2022/02/09 14:03:26;;;;;;;1.87;0.90;;;19.70;99.90;;;;;;1822759;78;21047;-73
2022/02/09 14:10:27;;;;;;;5.00;0.85;;;19.20;99.90;;;;;;1822879;77;21153;-72
2022/02/09 14:11:01;;;;;;;0.80;0.80;;;18.80;99.90;;;;;;1827124;77;21062;-73
2022/02/09 14:13:51;;;;;;;3.58;0.95;;;19.60;99.90;;;;;;1826182;77;21071;-72
2022/02/09 14:19:08;;;;;;;0.70;0.70;;;20.10;99.90;;;;;;1825861;78;21115;-73
2022/02/09 14:35:14;;;;;;;1.55;0.95;;;20.40;98.90;;;;;;1822758;77;21611;-73
2022/02/09 14:54:03;;;;;;;0.60;0.60;;;20.90;97.60;;;;;;1825303;79;21170;-74
2022/02/09 14:56:31;;;;;;;2.25;0.62;;;20.30;97.10;;;;;;1827150;77;21164;-72
2022/02/09 14:58:58;;;;;;;0.60;0.57;;;19.50;99.10;;;;;;1824591;77;21454;-73
2022/02/09 15:01:30;;;;;;;3.27;0.90;;;19.50;98.80;;;;;;1823901;77;21090;-74
2022/02/09 15:09:22;;;;;;;1.10;0.93;;;19.60;99.00;;;;;;1823261;77;21400;-72
2022/02/09 15:11:58;;;;;;;2.75;1.50;;;20.20;98.60;;;;;;1824421;77;21152;-71
2022/02/09 15:14:34;;;;;;;0.88;0.68;;;19.90;97.60;;;;;;1823740;77;21188;-71
2022/02/09 15:19:43;;;;;;;1.92;0.60;;;19.90;98.70;;;;;;1822742;77;21536;-71
2022/02/09 15:22:03;;;;;;;0.50;0.50;;;20.40;97.60;;;;;;1828742;77;21067;-72
2022/02/09 15:24:51;;;;;;;0.70;0.70;;;20.30;97.50;;;;;;1823142;77;21143;-73
2022/02/09 15:27:06;;;;;;;2.15;0.80;;;20.50;97.00;;;;;;1822519;78;21106;-71
2022/02/09 15:29:37;;;;;;;0.88;0.50;;;19.10;99.10;;;;;;1824188;78;21066;-71
2022/02/09 15:32:06;;;;;;;1.87;0.68;;;19.20;98.90;;;;;;1822939;77;21159;-72
2022/02/09 15:34:41;;;;;;;1.30;0.70;;;19.30;97.60;;;;;;1822723;77;21144;-72
2022/02/09 15:39:51;;;;;;;9.43;0.93;;;19.40;98.00;;;;;;1822714;79;21198;-72
2022/02/09 15:42:33;;;;;;;2.08;0.70;;;19.80;97.30;;;;;;1823428;77;21513;-75
2022/02/09 16:09:47;;;;;;;2.10;1.67;;;17.30;99.90;;;;;;1822824;78;21578;-76
2022/02/09 16:18:32;;;;;;;4.62;1.52;;;14.80;99.90;;;;;;1823044;78;21168;-73
2022/02/09 16:22:53;;;;;;;10.60;1.62;;;14.40;99.90;;;;;;1822721;79;21565;-73
2022/02/09 16:46:57;;;;;;;3.08;1.40;;;12.10;99.90;;;;;;1822825;79;21173;-74
2022/02/09 16:49:33;;;;;;;4.75;1.60;;;11.90;99.90;;;;;;1822801;78;21509;-75
2022/02/09 16:52:05;;;;;;;8.00;2.00;;;11.80;99.90;;;;;;1817572;77;21156;-74
2022/02/09 17:08:25;;;;;;;6.07;1.50;;;11.70;99.90;;;;;;1823143;77;21450;-74
2022/02/09 17:21:15;;;;;;;10.32;6.33;;;10.40;99.90;;;;;;1827316;78;21113;-75
2022/02/09 17:23:42;;;;;;;17.10;7.55;;;10.40;99.90;;;;;;1822939;78;21039;-75
2022/02/09 17:26:12;;;;;;;12.00;6.78;;;10.30;99.90;;;;;;1822966;79;21124;-74
2022/02/09 17:28:40;;;;;;;10.45;5.47;;;10.10;99.90;;;;;;1822836;78;21059;-75
2022/02/09 17:36:24;;;;;;;16.65;5.83;;;9.70;99.90;;;;;;1822989;77;21063;-76
2022/02/09 17:58:01;;;;;;;11.83;5.42;;;9.00;99.90;;;;;;1822470;79;20403;-80
2022/02/09 18:00:24;;;;;;;8.03;3.80;;;8.90;99.90;;;;;;1826193;77;21089;-78
2022/02/09 18:02:54;;;;;;;6.90;3.37;;;8.90;99.90;;;;;;1822829;79;21066;-76
2022/02/09 18:05:29;;;;;;;9.95;3.65;;;8.80;99.90;;;;;;1818580;79;21498;-78
2022/02/09 18:07:56;;;;;;;10.10;5.87;;;8.70;99.90;;;;;;1824312;77;21082;-79
2022/02/09 18:27:42;;;;;;;8.13;3.67;;;8.10;99.90;;;;;;1861713;77;21172;-78
2022/02/09 18:29:44;;;;;;;5.12;2.50;;;8.00;99.90;;;;;;1832751;77;21100;-77
2022/02/09 18:46:11;;;;;;;6.33;3.87;;;7.40;99.90;;;;;;1830901;77;21052;-76
2022/02/09 18:49:06;;;;;;;7.00;3.52;;;7.40;99.90;;;;;;1851232;77;21169;-76
2022/02/09 18:57:04;;;;;;;4.47;3.10;;;7.20;99.90;;;;;;1853208;77;21540;-76
2022/02/09 18:59:57;;;;;;;8.18;3.65;;;7.00;99.90;;;;;;1852580;77;21148;-76
2022/02/09 19:04:48;;;;;;;6.78;3.60;;;7.10;99.90;;;;;;1806235;77;21464;-76
2022/02/09 19:15:46;;;;;;;7.03;4.08;;;6.90;99.90;;;;;;1853520;77;21130;-76
2022/02/09 19:18:16;;;;;;;7.17;4.35;;;6.70;99.90;;;;;;1849929;77;21424;-76
2022/02/09 19:31:17;;;;;;;7.33;4.42;;;6.30;99.90;;;;;;1853695;77;21541;-79
2022/02/09 19:47:43;;;;;;;10.10;5.42;;;6.00;99.90;;;;;;1842707;76;21098;-85
2022/02/09 19:50:14;;;;;;;10.58;4.75;;;5.90;99.90;;;;;;1842489;76;21157;-81
2022/02/09 19:52:49;;;;;;;11.00;4.83;;;5.80;99.90;;;;;;1843781;77;21149;-82
2022/02/09 19:57:54;;;;;;;8.03;4.22;;;5.80;99.90;;;;;;1850570;76;21106;-81
2022/02/09 20:00:21;;;;;;;8.53;5.03;;;5.70;99.90;;;;;;1853139;77;21518;-82
2022/02/09 20:02:50;;;;;;;8.20;4.62;;;5.70;99.90;;;;;;1855130;77;21148;-86
2022/02/09 20:06:09;;;;;;;9.63;4.95;;;5.60;99.90;;;;;;1846314;76;21086;-86
2022/02/09 20:08:39;;;;;;;9.00;4.72;;;5.60;99.90;;;;;;1845293;77;21180;-84
2022/02/09 20:11:10;;;;;;;7.78;4.17;;;5.50;99.90;;;;;;1853020;77;21158;-82
2022/02/09 20:13:43;;;;;;;8.13;4.87;;;5.40;99.90;;;;;;1841014;76;21135;-82
2022/02/09 20:16:16;;;;;;;8.68;5.25;;;5.40;99.90;;;;;;1844898;76;21119;-82
2022/02/09 20:18:51;;;;;;;13.05;5.17;;;5.30;99.90;;;;;;1843914;76;21263;-84
2022/02/09 20:21:21;;;;;;;9.65;5.22;;;5.30;99.90;;;;;;1850050;77;21102;-85
2022/02/09 20:23:51;;;;;;;8.65;4.70;;;5.20;99.90;;;;;;1847752;76;21106;-79
2022/02/09 20:26:21;;;;;;;11.20;4.72;;;5.20;99.90;;;;;;1849381;77;21098;-86
2022/02/09 20:28:58;;;;;;;9.60;5.30;;;5.10;99.90;;;;;;1840052;77;21103;-85
2022/02/09 20:31:29;;;;;;;13.05;5.20;;;5.00;99.90;;;;;;1843436;76;21067;-84
2022/02/09 20:33:58;;;;;;;6.65;4.65;;;4.90;99.90;;;;;;1844301;77;21085;-83
2022/02/09 20:36:29;;;;;;;5.70;4.03;;;4.90;99.90;;;;;;1853040;77;21459;-86
2022/02/09 20:39:02;;;;;;;6.85;4.37;;;4.80;99.90;;;;;;1790338;79;21113;-89
2022/02/09 20:41:33;;;;;;;10.90;4.67;;;4.70;99.90;;;;;;1787882;78;21144;-88
2022/02/09 20:44:18;;;;;;;6.72;4.60;;;4.70;99.90;;;;;;1853844;76;21094;-85
2022/02/09 20:46:36;;;;;;;12.30;6.15;;;4.80;99.90;;;;;;1843949;77;21086;-84
2022/02/09 20:49:05;;;;;;;8.48;4.62;;;4.70;99.90;;;;;;1830668;77;21190;-83
2022/02/09 20:51:32;;;;;;;9.78;4.60;;;4.70;99.90;;;;;;1853939;77;21113;-79
2022/02/09 20:54:03;;;;;;;12.37;4.92;;;4.60;99.90;;;;;;1830381;77;21484;-85
2022/02/09 20:56:30;;;;;;;6.17;4.20;;;4.60;99.90;;;;;;1854820;77;21098;-83
2022/02/09 20:59:04;;;;;;;8.50;4.30;;;4.50;99.90;;;;;;1855072;77;21031;-84
2022/02/09 21:02:39;;;;;;;8.40;4.78;;;4.40;99.90;;;;;;1853564;76;21086;-86
2022/02/09 21:04:16;;;;;;;7.28;3.77;;;4.40;99.90;;;;;;1831893;76;21094;-85
2022/02/09 21:09:44;;;;;;;8.65;4.65;;;4.30;99.90;;;;;;1850998;77;21106;-81
2022/02/09 21:12:29;;;;;;;11.12;4.83;;;4.30;99.90;;;;;;1854652;77;21470;-88
2022/02/09 21:15:02;;;;;;;13.95;4.30;;;4.30;99.90;;;;;;1849223;76;21098;-87
2022/02/09 21:17:35;;;;;;;8.43;4.83;;;4.20;99.90;;;;;;1850301;77;21428;-85
2022/02/09 21:20:30;;;;;;;7.12;4.78;;;4.20;99.90;;;;;;1850482;77;21573;-84
2022/02/09 21:41:38;;;;;;;23.77;11.97;;;4.00;99.90;;;;;;1853287;77;21598;-75
2022/02/09 21:55:12;;;;;;;8.00;5.40;;;3.70;99.90;;;;;;1853758;77;21604;-75
2022/02/09 22:16:50;;;;;;;9.40;5.53;;;3.60;99.90;;;;;;1853996;77;21114;-74
2022/02/09 22:27:23;;;;;;;11.97;5.92;;;3.30;99.90;;;;;;1853904;77;21055;-75
2022/02/09 22:30:03;;;;;;;8.30;5.10;;;3.30;99.90;;;;;;1844195;77;21094;-74
2022/02/09 22:33:01;;;;;;;7.22;5.17;;;3.30;99.90;;;;;;1847055;77;21180;-75
2022/02/09 22:45:27;;;;;;;12.68;5.05;;;3.30;99.90;;;;;;1849318;77;21098;-73
2022/02/09 22:45:35;;;;;;;12.98;6.08;;;3.10;99.90;;;;;;1853721;77;21158;-74
2022/02/09 22:54:30;;;;;;;8.90;4.95;;;3.10;99.90;;;;;;1853726;77;21074;-74
2022/02/09 22:55:45;;;;;;;7.28;5.20;;;3.00;99.90;;;;;;1853428;77;21157;-75
2022/02/09 22:58:13;;;;;;;6.28;4.47;;;3.00;99.90;;;;;;1853418;77;21102;-75
2022/02/09 23:01:03;;;;;;;6.53;4.25;;;2.90;99.90;;;;;;1853742;77;21090;-74
2022/02/09 23:03:31;;;;;;;8.60;5.10;;;2.90;99.90;;;;;;1850511;77;21428;-74
2022/02/09 23:09:12;;;;;;;7.72;4.70;;;2.80;99.90;;;;;;1859079;76;21581;-74
2022/02/09 23:11:11;;;;;;;9.83;4.97;;;2.80;99.90;;;;;;1826888;77;21082;-75
2022/02/09 23:13:47;;;;;;;6.40;4.62;;;2.70;99.90;;;;;;1851731;77;21082;-74
2022/02/09 23:19:57;;;;;;;15.83;5.92;;;2.60;99.90;;;;;;1853544;77;21094;-75
2022/02/09 23:21:54;;;;;;;9.20;6.08;;;2.60;99.90;;;;;;1841280;77;21491;-74
2022/02/09 23:24:28;;;;;;;11.57;5.78;;;2.60;99.90;;;;;;1843204;77;21484;-74
2022/02/09 23:53:02;;;;;;;9.95;6.30;;;2.60;99.90;;;;;;1853334;77;21157;-75
2022/02/09 23:54:42;;;;;;;11.18;5.83;;;2.20;99.90;;;;;;1853523;77;21615;-75
2022/02/09 23:57:20;;;;;;;10.35;5.40;;;2.20;99.90;;;;;;1839975;77;21180;-74
